sensor_id;sensor_type;location;lat;lon;timestamp;P1;durP1;ratioP1;P2;durP2;ratioP2
19038;SDS011;9652;49.014;12.052;2022-12-07T00:00:53;5.20;;;4.70;;
19038;SDS011;9652;49.014;12.052;2022-12-07T00:03:21;5.87;;;5.30;;
19038;SDS011;9652;49.014;12.052;2022-12-07T00:05:48;5.37;;;4.87;;
19038;SDS011;9652;49.014;12.052;2022-12-07T00:08:16;5.00;;;4.60;;
19038;SDS011;9652;49.014;12.052;2022-12-07T00:10:44;5.03;;;4.63;;
19038;SDS011;9652;49.014;12.052;2022-12-07T00:13:11;5.63;;;5.13;;
19038;SDS011;9652;49.014;12.052;2022-12-07T00:15:38;4.70;;;4.30;;
19038;SDS011;9652;49.014;12.052;2022-12-07T00:18:05;5.27;;;4.77;;
19038;SDS011;9652;49.014;12.052;2022-12-07T00:20:32;5.17;;;4.43;;
19038;SDS011;9652;49.014;12.052;2022-12-07T00:22:59;5.17;;;4.67;;
19038;SDS011;9652;49.014;12.052;2022-12-07T00:25:28;5.10;;;4.63;;
19038;SDS011;9652;49.014;12.052;2022-12-07T00:27:56;5.70;;;5.20;;
19038;SDS011;9652;49.014;12.052;2022-12-07T00:30:24;5.37;;;4.30;;
19038;SDS011;9652;49.014;12.052;2022-12-07T00:32:51;5.50;;;4.43;;
19038;SDS011;9652;49.014;12.052;2022-12-07T00:35:18;5.77;;;5.27;;
19038;SDS011;9652;49.014;12.052;2022-12-07T00:37:45;5.93;;;4.77;;
19038;SDS011;9652;49.014;12.052;2022-12-07T00:40:13;5.40;;;4.90;;
19038;SDS011;9652;49.014;12.052;2022-12-07T00:42:41;5.73;;;5.17;;
19038;SDS011;9652;49.014;12.052;2022-12-07T00:45:08;4.67;;;4.30;;
19038;SDS011;9652;49.014;12.052;2022-12-07T00:47:36;5.70;;;5.20;;
19038;SDS011;9652;49.014;12.052;2022-12-07T00:50:03;5.30;;;4.80;;
19038;SDS011;9652;49.014;12.052;2022-12-07T00:52:32;5.87;;;5.00;;
19038;SDS011;9652;49.014;12.052;2022-12-07T00:54:59;5.00;;;4.60;;
19038;SDS011;9652;49.014;12.052;2022-12-07T00:57:26;5.03;;;4.60;;
19038;SDS011;9652;49.014;12.052;2022-12-07T00:59:55;5.17;;;4.67;;
19038;SDS011;9652;49.014;12.052;2022-12-07T01:02:22;5.23;;;4.83;;
19038;SDS011;9652;49.014;12.052;2022-12-07T01:04:50;5.30;;;4.80;;
19038;SDS011;9652;49.014;12.052;2022-12-07T01:07:17;5.93;;;5.00;;
19038;SDS011;9652;49.014;12.052;2022-12-07T01:09:44;5.27;;;4.77;;
19038;SDS011;9652;49.014;12.052;2022-12-07T01:12:11;5.27;;;4.77;;
19038;SDS011;9652;49.014;12.052;2022-12-07T01:14:38;4.93;;;4.53;;
19038;SDS011;9652;49.014;12.052;2022-12-07T01:17:06;5.13;;;4.63;;
19038;SDS011;9652;49.014;12.052;2022-12-07T01:19:33;6.13;;;5.43;;
19038;SDS011;9652;49.014;12.052;2022-12-07T01:22:00;6.30;;;5.00;;
19038;SDS011;9652;49.014;12.052;2022-12-07T01:24:28;5.63;;;4.77;;
19038;SDS011;9652;49.014;12.052;2022-12-07T01:26:55;5.63;;;5.13;;
19038;SDS011;9652;49.014;12.052;2022-12-07T01:29:22;5.13;;;4.70;;
19038;SDS011;9652;49.014;12.052;2022-12-07T01:31:49;6.07;;;5.23;;
19038;SDS011;9652;49.014;12.052;2022-12-07T01:34:18;5.53;;;5.03;;
19038;SDS011;9652;49.014;12.052;2022-12-07T01:36:45;5.67;;;4.80;;
19038;SDS011;9652;49.014;12.052;2022-12-07T01:39:12;5.60;;;4.40;;
19038;SDS011;9652;49.014;12.052;2022-12-07T01:41:40;6.03;;;5.43;;
19038;SDS011;9652;49.014;12.052;2022-12-07T01:44:10;5.00;;;4.50;;
19038;SDS011;9652;49.014;12.052;2022-12-07T01:46:44;5.30;;;4.87;;
19038;SDS011;9652;49.014;12.052;2022-12-07T01:49:14;5.13;;;4.63;;
19038;SDS011;9652;49.014;12.052;2022-12-07T01:51:49;4.73;;;4.30;;
19038;SDS011;9652;49.014;12.052;2022-12-07T01:54:23;5.20;;;4.80;;
19038;SDS011;9652;49.014;12.052;2022-12-07T01:56:53;5.00;;;4.50;;
19038;SDS011;9652;49.014;12.052;2022-12-07T01:59:23;5.40;;;4.77;;
19038;SDS011;9652;49.014;12.052;2022-12-07T02:01:52;5.13;;;4.70;;
19038;SDS011;9652;49.014;12.052;2022-12-07T02:04:22;5.23;;;4.83;;
19038;SDS011;9652;49.014;12.052;2022-12-07T02:06:50;5.50;;;5.00;;
19038;SDS011;9652;49.014;12.052;2022-12-07T02:09:18;5.03;;;4.63;;
19038;SDS011;9652;49.014;12.052;2022-12-07T02:11:45;6.50;;;5.87;;
19038;SDS011;9652;49.014;12.052;2022-12-07T02:14:12;6.20;;;5.60;;
19038;SDS011;9652;49.014;12.052;2022-12-07T02:16:43;5.33;;;4.83;;
19038;SDS011;9652;49.014;12.052;2022-12-07T02:19:44;5.70;;;5.20;;
19038;SDS011;9652;49.014;12.052;2022-12-07T02:22:52;5.63;;;5.13;;
19038;SDS011;9652;49.014;12.052;2022-12-07T02:29:21;5.50;;;5.00;;
19038;SDS011;9652;49.014;12.052;2022-12-07T02:31:54;5.80;;;5.30;;
19038;SDS011;9652;49.014;12.052;2022-12-07T02:34:33;5.27;;;4.83;;
19038;SDS011;9652;49.014;12.052;2022-12-07T02:37:10;6.23;;;5.63;;
19038;SDS011;9652;49.014;12.052;2022-12-07T02:39:48;5.90;;;5.37;;
19038;SDS011;9652;49.014;12.052;2022-12-07T02:42:25;6.20;;;5.50;;
19038;SDS011;9652;49.014;12.052;2022-12-07T02:45:03;5.33;;;4.93;;
19038;SDS011;9652;49.014;12.052;2022-12-07T02:47:33;5.93;;;5.33;;
19038;SDS011;9652;49.014;12.052;2022-12-07T02:50:03;6.97;;;6.20;;
19038;SDS011;9652;49.014;12.052;2022-12-07T02:52:32;6.50;;;5.90;;
19038;SDS011;9652;49.014;12.052;2022-12-07T02:54:59;6.10;;;5.50;;
19038;SDS011;9652;49.014;12.052;2022-12-07T02:57:30;6.30;;;5.80;;
19038;SDS011;9652;49.014;12.052;2022-12-07T03:00:16;6.47;;;5.87;;
19038;SDS011;9652;49.014;12.052;2022-12-07T03:02:48;5.53;;;5.03;;
19038;SDS011;9652;49.014;12.052;2022-12-07T03:05:27;6.10;;;5.50;;
19038;SDS011;9652;49.014;12.052;2022-12-07T03:08:43;5.93;;;5.17;;
19038;SDS011;9652;49.014;12.052;2022-12-07T03:11:21;6.50;;;5.90;;
19038;SDS011;9652;49.014;12.052;2022-12-07T03:13:58;6.37;;;5.77;;
19038;SDS011;9652;49.014;12.052;2022-12-07T03:16:37;6.20;;;5.53;;
19038;SDS011;9652;49.014;12.052;2022-12-07T03:19:13;6.27;;;5.67;;
19038;SDS011;9652;49.014;12.052;2022-12-07T03:21:46;6.03;;;5.43;;
19038;SDS011;9652;49.014;12.052;2022-12-07T03:24:21;6.13;;;5.53;;
19038;SDS011;9652;49.014;12.052;2022-12-07T03:26:53;6.90;;;5.87;;
19038;SDS011;9652;49.014;12.052;2022-12-07T03:29:28;8.57;;;5.93;;
19038;SDS011;9652;49.014;12.052;2022-12-07T03:32:03;5.60;;;5.10;;
19038;SDS011;9652;49.014;12.052;2022-12-07T03:34:40;6.50;;;5.43;;
19038;SDS011;9652;49.014;12.052;2022-12-07T03:37:14;6.50;;;5.93;;
19038;SDS011;9652;49.014;12.052;2022-12-07T03:39:52;5.77;;;5.20;;
19038;SDS011;9652;49.014;12.052;2022-12-07T03:42:30;6.27;;;5.57;;
19038;SDS011;9652;49.014;12.052;2022-12-07T03:44:59;6.83;;;6.13;;
19038;SDS011;9652;49.014;12.052;2022-12-07T03:47:31;6.70;;;6.00;;
19038;SDS011;9652;49.014;12.052;2022-12-07T03:50:09;6.60;;;5.90;;
19038;SDS011;9652;49.014;12.052;2022-12-07T03:52:44;6.23;;;5.63;;
19038;SDS011;9652;49.014;12.052;2022-12-07T03:55:20;6.70;;;6.00;;
19038;SDS011;9652;49.014;12.052;2022-12-07T03:57:56;7.53;;;6.23;;
19038;SDS011;9652;49.014;12.052;2022-12-07T04:00:26;6.80;;;5.83;;
19038;SDS011;9652;49.014;12.052;2022-12-07T04:02:56;7.80;;;5.87;;
19038;SDS011;9652;49.014;12.052;2022-12-07T04:05:24;7.00;;;6.30;;
19038;SDS011;9652;49.014;12.052;2022-12-07T04:07:51;8.00;;;7.10;;
19038;SDS011;9652;49.014;12.052;2022-12-07T04:10:19;8.57;;;7.20;;
19038;SDS011;9652;49.014;12.052;2022-12-07T04:12:46;6.93;;;6.27;;
19038;SDS011;9652;49.014;12.052;2022-12-07T04:15:13;6.33;;;5.73;;
19038;SDS011;9652;49.014;12.052;2022-12-07T04:17:41;7.03;;;6.33;;
19038;SDS011;9652;49.014;12.052;2022-12-07T04:20:10;7.23;;;6.37;;
19038;SDS011;9652;49.014;12.052;2022-12-07T04:22:39;9.53;;;7.20;;
19038;SDS011;9652;49.014;12.052;2022-12-07T04:25:06;7.57;;;6.87;;
19038;SDS011;9652;49.014;12.052;2022-12-07T04:27:34;7.07;;;6.37;;
19038;SDS011;9652;49.014;12.052;2022-12-07T04:30:01;7.47;;;6.67;;
19038;SDS011;9652;49.014;12.052;2022-12-07T04:32:29;8.10;;;6.47;;
19038;SDS011;9652;49.014;12.052;2022-12-07T04:34:56;7.37;;;6.60;;
19038;SDS011;9652;49.014;12.052;2022-12-07T04:37:25;8.50;;;7.17;;
19038;SDS011;9652;49.014;12.052;2022-12-07T04:39:52;8.97;;;6.97;;
19038;SDS011;9652;49.014;12.052;2022-12-07T04:42:19;8.93;;;7.37;;
19038;SDS011;9652;49.014;12.052;2022-12-07T04:44:46;7.60;;;6.50;;
19038;SDS011;9652;49.014;12.052;2022-12-07T04:47:13;8.40;;;6.73;;
19038;SDS011;9652;49.014;12.052;2022-12-07T04:49:40;8.27;;;7.00;;
19038;SDS011;9652;49.014;12.052;2022-12-07T04:52:08;8.17;;;6.67;;
19038;SDS011;9652;49.014;12.052;2022-12-07T04:54:36;8.20;;;7.17;;
19038;SDS011;9652;49.014;12.052;2022-12-07T04:57:03;7.30;;;6.43;;
19038;SDS011;9652;49.014;12.052;2022-12-07T04:59:30;7.37;;;6.17;;
19038;SDS011;9652;49.014;12.052;2022-12-07T05:01:57;7.43;;;6.63;;
19038;SDS011;9652;49.014;12.052;2022-12-07T05:04:25;7.87;;;6.90;;
19038;SDS011;9652;49.014;12.052;2022-12-07T05:06:52;7.53;;;6.57;;
19038;SDS011;9652;49.014;12.052;2022-12-07T05:09:19;7.87;;;6.80;;
19038;SDS011;9652;49.014;12.052;2022-12-07T05:11:47;8.77;;;7.17;;
19038;SDS011;9652;49.014;12.052;2022-12-07T05:14:15;8.60;;;7.50;;
19038;SDS011;9652;49.014;12.052;2022-12-07T05:16:45;7.53;;;6.73;;
19038;SDS011;9652;49.014;12.052;2022-12-07T05:19:15;12.00;;;6.93;;
19038;SDS011;9652;49.014;12.052;2022-12-07T05:21:44;7.63;;;6.50;;
19038;SDS011;9652;49.014;12.052;2022-12-07T05:24:12;8.13;;;7.17;;
19038;SDS011;9652;49.014;12.052;2022-12-07T05:26:41;7.07;;;6.37;;
19038;SDS011;9652;49.014;12.052;2022-12-07T05:29:11;8.20;;;7.17;;
19038;SDS011;9652;49.014;12.052;2022-12-07T05:31:40;7.27;;;6.57;;
19038;SDS011;9652;49.014;12.052;2022-12-07T05:34:07;8.57;;;6.70;;
19038;SDS011;9652;49.014;12.052;2022-12-07T05:36:35;7.37;;;6.67;;
19038;SDS011;9652;49.014;12.052;2022-12-07T05:39:03;7.63;;;6.80;;
19038;SDS011;9652;49.014;12.052;2022-12-07T05:41:30;7.77;;;6.70;;
19038;SDS011;9652;49.014;12.052;2022-12-07T05:44:16;7.93;;;6.63;;
19038;SDS011;9652;49.014;12.052;2022-12-07T05:46:43;7.97;;;6.63;;
19038;SDS011;9652;49.014;12.052;2022-12-07T05:49:10;6.40;;;5.73;;
19038;SDS011;9652;49.014;12.052;2022-12-07T05:51:37;7.30;;;6.60;;
19038;SDS011;9652;49.014;12.052;2022-12-07T05:54:05;8.47;;;7.13;;
19038;SDS011;9652;49.014;12.052;2022-12-07T05:56:32;8.93;;;6.87;;
19038;SDS011;9652;49.014;12.052;2022-12-07T05:58:59;7.20;;;6.50;;
19038;SDS011;9652;49.014;12.052;2022-12-07T06:01:47;7.77;;;6.13;;
19038;SDS011;9652;49.014;12.052;2022-12-07T06:04:15;7.70;;;6.90;;
19038;SDS011;9652;49.014;12.052;2022-12-07T06:06:42;8.00;;;6.70;;
19038;SDS011;9652;49.014;12.052;2022-12-07T06:09:09;8.50;;;6.10;;
19038;SDS011;9652;49.014;12.052;2022-12-07T06:11:38;8.17;;;7.43;;
19038;SDS011;9652;49.014;12.052;2022-12-07T06:14:23;7.57;;;6.77;;
19038;SDS011;9652;49.014;12.052;2022-12-07T06:16:51;7.87;;;6.10;;
19038;SDS011;9652;49.014;12.052;2022-12-07T06:19:19;6.90;;;6.20;;
19038;SDS011;9652;49.014;12.052;2022-12-07T06:21:46;7.83;;;6.80;;
19038;SDS011;9652;49.014;12.052;2022-12-07T06:24:13;8.10;;;7.30;;
19038;SDS011;9652;49.014;12.052;2022-12-07T06:26:43;8.57;;;6.67;;
19038;SDS011;9652;49.014;12.052;2022-12-07T06:29:11;7.50;;;6.50;;
19038;SDS011;9652;49.014;12.052;2022-12-07T06:31:39;7.00;;;6.30;;
19038;SDS011;9652;49.014;12.052;2022-12-07T06:34:09;6.80;;;6.10;;
19038;SDS011;9652;49.014;12.052;2022-12-07T06:36:38;6.97;;;6.27;;
19038;SDS011;9652;49.014;12.052;2022-12-07T06:39:06;7.53;;;6.83;;
19038;SDS011;9652;49.014;12.052;2022-12-07T06:41:35;8.13;;;6.90;;
19038;SDS011;9652;49.014;12.052;2022-12-07T06:44:03;8.60;;;6.20;;
19038;SDS011;9652;49.014;12.052;2022-12-07T06:46:31;8.17;;;7.27;;
19038;SDS011;9652;49.014;12.052;2022-12-07T06:49:00;9.77;;;7.03;;
19038;SDS011;9652;49.014;12.052;2022-12-07T06:51:29;7.90;;;7.10;;
19038;SDS011;9652;49.014;12.052;2022-12-07T06:53:56;8.27;;;7.40;;
19038;SDS011;9652;49.014;12.052;2022-12-07T06:56:24;6.63;;;5.47;;
19038;SDS011;9652;49.014;12.052;2022-12-07T06:58:51;9.30;;;6.70;;
19038;SDS011;9652;49.014;12.052;2022-12-07T07:01:18;8.63;;;7.47;;
19038;SDS011;9652;49.014;12.052;2022-12-07T07:03:45;7.93;;;6.63;;
19038;SDS011;9652;49.014;12.052;2022-12-07T07:06:13;7.67;;;6.87;;
19038;SDS011;9652;49.014;12.052;2022-12-07T07:08:42;8.07;;;7.27;;
19038;SDS011;9652;49.014;12.052;2022-12-07T07:11:09;9.50;;;7.47;;
19038;SDS011;9652;49.014;12.052;2022-12-07T07:13:37;9.10;;;6.97;;
19038;SDS011;9652;49.014;12.052;2022-12-07T07:16:05;8.73;;;7.10;;
19038;SDS011;9652;49.014;12.052;2022-12-07T07:18:33;9.23;;;7.67;;
19038;SDS011;9652;49.014;12.052;2022-12-07T07:21:00;10.03;;;7.60;;
19038;SDS011;9652;49.014;12.052;2022-12-07T07:23:28;9.07;;;8.10;;
19038;SDS011;9652;49.014;12.052;2022-12-07T07:25:57;10.73;;;7.80;;
19038;SDS011;9652;49.014;12.052;2022-12-07T07:28:24;7.57;;;6.63;;
19038;SDS011;9652;49.014;12.052;2022-12-07T07:30:51;10.93;;;7.47;;
19038;SDS011;9652;49.014;12.052;2022-12-07T07:33:18;8.20;;;7.17;;
19038;SDS011;9652;49.014;12.052;2022-12-07T07:35:45;10.57;;;7.60;;
19038;SDS011;9652;49.014;12.052;2022-12-07T07:38:12;10.33;;;7.30;;
19038;SDS011;9652;49.014;12.052;2022-12-07T07:40:40;8.67;;;6.90;;
19038;SDS011;9652;49.014;12.052;2022-12-07T07:43:08;9.37;;;7.53;;
19038;SDS011;9652;49.014;12.052;2022-12-07T07:45:35;9.50;;;7.37;;
19038;SDS011;9652;49.014;12.052;2022-12-07T07:48:02;9.17;;;7.40;;
19038;SDS011;9652;49.014;12.052;2022-12-07T07:50:30;8.63;;;6.93;;
19038;SDS011;9652;49.014;12.052;2022-12-07T07:52:57;7.87;;;6.37;;
19038;SDS011;9652;49.014;12.052;2022-12-07T07:55:24;11.27;;;8.20;;
19038;SDS011;9652;49.014;12.052;2022-12-07T07:57:51;9.20;;;7.23;;
19038;SDS011;9652;49.014;12.052;2022-12-07T08:00:20;10.43;;;7.73;;
19038;SDS011;9652;49.014;12.052;2022-12-07T08:02:48;9.20;;;7.33;;
19038;SDS011;9652;49.014;12.052;2022-12-07T08:05:15;9.40;;;7.17;;
19038;SDS011;9652;49.014;12.052;2022-12-07T08:07:43;11.30;;;7.97;;
19038;SDS011;9652;49.014;12.052;2022-12-07T08:10:11;8.20;;;6.83;;
19038;SDS011;9652;49.014;12.052;2022-12-07T08:12:40;9.43;;;6.87;;
19038;SDS011;9652;49.014;12.052;2022-12-07T08:15:25;10.57;;;7.27;;
19038;SDS011;9652;49.014;12.052;2022-12-07T08:17:53;10.43;;;7.67;;
19038;SDS011;9652;49.014;12.052;2022-12-07T08:20:21;9.80;;;7.00;;
19038;SDS011;9652;49.014;12.052;2022-12-07T08:22:49;10.90;;;7.70;;
19038;SDS011;9652;49.014;12.052;2022-12-07T08:25:16;9.77;;;6.83;;
19038;SDS011;9652;49.014;12.052;2022-12-07T08:27:43;9.00;;;6.87;;
19038;SDS011;9652;49.014;12.052;2022-12-07T08:30:10;10.27;;;7.87;;
19038;SDS011;9652;49.014;12.052;2022-12-07T08:32:39;8.37;;;7.03;;
19038;SDS011;9652;49.014;12.052;2022-12-07T08:35:07;9.07;;;7.00;;
19038;SDS011;9652;49.014;12.052;2022-12-07T08:37:35;9.63;;;8.07;;
19038;SDS011;9652;49.014;12.052;2022-12-07T08:40:03;8.07;;;6.73;;
19038;SDS011;9652;49.014;12.052;2022-12-07T08:42:32;7.73;;;6.37;;
19038;SDS011;9652;49.014;12.052;2022-12-07T08:45:05;9.53;;;7.00;;
19038;SDS011;9652;49.014;12.052;2022-12-07T08:47:34;9.43;;;6.83;;
19038;SDS011;9652;49.014;12.052;2022-12-07T08:50:07;9.10;;;6.97;;
19038;SDS011;9652;49.014;12.052;2022-12-07T08:52:36;8.60;;;7.17;;
19038;SDS011;9652;49.014;12.052;2022-12-07T08:55:06;8.70;;;6.90;;
19038;SDS011;9652;49.014;12.052;2022-12-07T08:57:36;10.37;;;7.50;;
19038;SDS011;9652;49.014;12.052;2022-12-07T09:00:05;8.73;;;6.40;;
19038;SDS011;9652;49.014;12.052;2022-12-07T09:02:34;10.70;;;7.60;;
19038;SDS011;9652;49.014;12.052;2022-12-07T09:05:02;10.77;;;6.77;;
19038;SDS011;9652;49.014;12.052;2022-12-07T09:07:31;10.13;;;7.13;;
19038;SDS011;9652;49.014;12.052;2022-12-07T09:10:00;9.07;;;7.40;;
19038;SDS011;9652;49.014;12.052;2022-12-07T09:12:27;12.73;;;7.97;;
19038;SDS011;9652;49.014;12.052;2022-12-07T09:14:54;8.77;;;7.43;;
19038;SDS011;9652;49.014;12.052;2022-12-07T09:17:22;9.10;;;7.10;;
19038;SDS011;9652;49.014;12.052;2022-12-07T09:19:49;9.17;;;6.97;;
19038;SDS011;9652;49.014;12.052;2022-12-07T09:22:16;13.20;;;7.03;;
19038;SDS011;9652;49.014;12.052;2022-12-07T09:24:45;12.20;;;8.73;;
19038;SDS011;9652;49.014;12.052;2022-12-07T09:27:12;10.70;;;7.83;;
19038;SDS011;9652;49.014;12.052;2022-12-07T09:29:40;9.57;;;6.93;;
19038;SDS011;9652;49.014;12.052;2022-12-07T09:32:07;11.67;;;7.93;;
19038;SDS011;9652;49.014;12.052;2022-12-07T09:34:35;11.20;;;8.03;;
19038;SDS011;9652;49.014;12.052;2022-12-07T09:37:02;8.60;;;7.27;;
19038;SDS011;9652;49.014;12.052;2022-12-07T09:39:29;10.20;;;7.50;;
19038;SDS011;9652;49.014;12.052;2022-12-07T09:41:58;10.67;;;8.03;;
19038;SDS011;9652;49.014;12.052;2022-12-07T09:44:30;10.33;;;7.97;;
19038;SDS011;9652;49.014;12.052;2022-12-07T09:46:59;8.63;;;7.00;;
19038;SDS011;9652;49.014;12.052;2022-12-07T09:49:28;10.40;;;7.47;;
19038;SDS011;9652;49.014;12.052;2022-12-07T09:52:02;9.87;;;7.03;;
19038;SDS011;9652;49.014;12.052;2022-12-07T09:54:46;10.87;;;7.87;;
19038;SDS011;9652;49.014;12.052;2022-12-07T09:57:16;11.17;;;8.33;;
19038;SDS011;9652;49.014;12.052;2022-12-07T09:59:54;11.37;;;7.57;;
19038;SDS011;9652;49.014;12.052;2022-12-07T10:02:28;11.00;;;7.83;;
19038;SDS011;9652;49.014;12.052;2022-12-07T10:05:03;12.03;;;7.63;;
19038;SDS011;9652;49.014;12.052;2022-12-07T10:07:37;11.57;;;8.07;;
19038;SDS011;9652;49.014;12.052;2022-12-07T10:10:04;9.37;;;7.03;;
19038;SDS011;9652;49.014;12.052;2022-12-07T10:12:53;11.23;;;7.63;;
19038;SDS011;9652;49.014;12.052;2022-12-07T10:15:36;8.80;;;7.90;;
19038;SDS011;9652;49.014;12.052;2022-12-07T10:18:17;10.17;;;7.77;;
19038;SDS011;9652;49.014;12.052;2022-12-07T10:20:59;8.90;;;7.33;;
19038;SDS011;9652;49.014;12.052;2022-12-07T10:23:38;8.90;;;7.03;;
19038;SDS011;9652;49.014;12.052;2022-12-07T10:26:21;10.90;;;7.03;;
19038;SDS011;9652;49.014;12.052;2022-12-07T10:29:04;9.23;;;7.23;;
19038;SDS011;9652;49.014;12.052;2022-12-07T10:31:44;9.20;;;7.23;;
19038;SDS011;9652;49.014;12.052;2022-12-07T10:34:19;9.10;;;6.87;;
19038;SDS011;9652;49.014;12.052;2022-12-07T10:36:50;9.43;;;7.43;;
19038;SDS011;9652;49.014;12.052;2022-12-07T10:39:19;8.17;;;6.53;;
19038;SDS011;9652;49.014;12.052;2022-12-07T10:41:54;10.50;;;7.60;;
19038;SDS011;9652;49.014;12.052;2022-12-07T10:44:26;8.80;;;7.03;;
19038;SDS011;9652;49.014;12.052;2022-12-07T10:46:58;11.03;;;8.00;;
19038;SDS011;9652;49.014;12.052;2022-12-07T10:49:51;8.20;;;6.80;;
19038;SDS011;9652;49.014;12.052;2022-12-07T10:53:00;8.93;;;6.20;;
19038;SDS011;9652;49.014;12.052;2022-12-07T10:55:52;8.13;;;6.20;;
19038;SDS011;9652;49.014;12.052;2022-12-07T10:58:47;7.10;;;5.57;;
19038;SDS011;9652;49.014;12.052;2022-12-07T11:01:36;7.53;;;5.70;;
19038;SDS011;9652;49.014;12.052;2022-12-07T11:04:15;7.50;;;6.13;;
19038;SDS011;9652;49.014;12.052;2022-12-07T11:06:57;7.60;;;5.97;;
19038;SDS011;9652;49.014;12.052;2022-12-07T11:09:47;6.13;;;4.80;;
19038;SDS011;9652;49.014;12.052;2022-12-07T11:12:31;7.20;;;5.63;;
19038;SDS011;9652;49.014;12.052;2022-12-07T11:15:17;7.07;;;5.83;;
19038;SDS011;9652;49.014;12.052;2022-12-07T11:17:55;6.90;;;6.10;;
19038;SDS011;9652;49.014;12.052;2022-12-07T11:20:34;7.17;;;5.57;;
19038;SDS011;9652;49.014;12.052;2022-12-07T11:23:13;8.60;;;5.90;;
19038;SDS011;9652;49.014;12.052;2022-12-07T11:25:59;6.27;;;5.53;;
19038;SDS011;9652;49.014;12.052;2022-12-07T11:28:42;6.47;;;5.30;;
19038;SDS011;9652;49.014;12.052;2022-12-07T11:31:34;6.13;;;5.43;;
19038;SDS011;9652;49.014;12.052;2022-12-07T11:34:21;8.33;;;5.47;;
19038;SDS011;9652;49.014;12.052;2022-12-07T11:37:03;7.23;;;5.10;;
19038;SDS011;9652;49.014;12.052;2022-12-07T11:39:39;7.57;;;5.50;;
19038;SDS011;9652;49.014;12.052;2022-12-07T11:42:16;7.37;;;5.77;;
19038;SDS011;9652;49.014;12.052;2022-12-07T11:44:50;5.50;;;4.70;;
19038;SDS011;9652;49.014;12.052;2022-12-07T11:47:23;6.90;;;5.40;;
19038;SDS011;9652;49.014;12.052;2022-12-07T11:50:05;6.73;;;5.20;;
19038;SDS011;9652;49.014;12.052;2022-12-07T11:52:51;5.87;;;4.87;;
19038;SDS011;9652;49.014;12.052;2022-12-07T11:55:26;5.53;;;4.93;;
19038;SDS011;9652;49.014;12.052;2022-12-07T11:58:11;5.27;;;4.33;;
19038;SDS011;9652;49.014;12.052;2022-12-07T12:01:01;5.90;;;4.57;;
19038;SDS011;9652;49.014;12.052;2022-12-07T12:03:42;6.30;;;5.00;;
19038;SDS011;9652;49.014;12.052;2022-12-07T12:06:14;5.07;;;4.57;;
19038;SDS011;9652;49.014;12.052;2022-12-07T12:08:42;6.23;;;5.40;;
19038;SDS011;9652;49.014;12.052;2022-12-07T12:11:18;6.53;;;5.37;;
19038;SDS011;9652;49.014;12.052;2022-12-07T12:14:16;5.67;;;4.83;;
19038;SDS011;9652;49.014;12.052;2022-12-07T12:20:18;6.33;;;5.30;;
19038;SDS011;9652;49.014;12.052;2022-12-07T12:22:55;5.57;;;4.57;;
19038;SDS011;9652;49.014;12.052;2022-12-07T12:25:35;6.70;;;5.10;;
19038;SDS011;9652;49.014;12.052;2022-12-07T12:28:17;7.57;;;5.33;;
19038;SDS011;9652;49.014;12.052;2022-12-07T12:31:04;6.47;;;4.87;;
19038;SDS011;9652;49.014;12.052;2022-12-07T12:33:35;6.50;;;5.10;;
19038;SDS011;9652;49.014;12.052;2022-12-07T12:39:10;5.97;;;4.80;;
19038;SDS011;9652;49.014;12.052;2022-12-07T12:41:53;6.57;;;5.63;;
19038;SDS011;9652;49.014;12.052;2022-12-07T12:47:52;6.90;;;5.30;;
19038;SDS011;9652;49.014;12.052;2022-12-07T12:50:25;6.73;;;4.77;;
19038;SDS011;9652;49.014;12.052;2022-12-07T12:53:15;5.30;;;4.80;;
19038;SDS011;9652;49.014;12.052;2022-12-07T13:01:50;4.93;;;4.50;;
19038;SDS011;9652;49.014;12.052;2022-12-07T13:04:28;7.40;;;5.13;;
19038;SDS011;9652;49.014;12.052;2022-12-07T13:10:24;6.67;;;4.97;;
19038;SDS011;9652;49.014;12.052;2022-12-07T13:25:19;5.83;;;4.63;;
19038;SDS011;9652;49.014;12.052;2022-12-07T13:27:57;5.17;;;4.67;;
19038;SDS011;9652;49.014;12.052;2022-12-07T13:30:35;6.83;;;5.03;;
19038;SDS011;9652;49.014;12.052;2022-12-07T13:33:17;6.07;;;5.20;;
19038;SDS011;9652;49.014;12.052;2022-12-07T13:35:45;6.60;;;5.00;;
19038;SDS011;9652;49.014;12.052;2022-12-07T13:38:16;7.50;;;5.27;;
19038;SDS011;9652;49.014;12.052;2022-12-07T13:43:46;6.17;;;5.20;;
19038;SDS011;9652;49.014;12.052;2022-12-07T13:46:20;5.40;;;4.73;;
19038;SDS011;9652;49.014;12.052;2022-12-07T13:48:58;7.47;;;6.03;;
19038;SDS011;9652;49.014;12.052;2022-12-07T13:51:26;6.00;;;4.87;;
19038;SDS011;9652;49.014;12.052;2022-12-07T13:53:55;5.73;;;5.00;;
19038;SDS011;9652;49.014;12.052;2022-12-07T13:56:28;5.83;;;5.23;;
19038;SDS011;9652;49.014;12.052;2022-12-07T13:59:00;7.13;;;5.23;;
19038;SDS011;9652;49.014;12.052;2022-12-07T14:01:29;6.70;;;5.43;;
19038;SDS011;9652;49.014;12.052;2022-12-07T14:07:15;5.67;;;4.77;;
19038;SDS011;9652;49.014;12.052;2022-12-07T14:09:56;5.10;;;4.40;;
19038;SDS011;9652;49.014;12.052;2022-12-07T14:12:27;5.13;;;4.63;;
19038;SDS011;9652;49.014;12.052;2022-12-07T14:14:57;6.10;;;5.27;;
19038;SDS011;9652;49.014;12.052;2022-12-07T14:17:27;6.90;;;4.80;;
19038;SDS011;9652;49.014;12.052;2022-12-07T14:19:55;5.70;;;5.10;;
19038;SDS011;9652;49.014;12.052;2022-12-07T14:22:26;5.23;;;4.67;;
19038;SDS011;9652;49.014;12.052;2022-12-07T14:25:11;6.30;;;4.90;;
19038;SDS011;9652;49.014;12.052;2022-12-07T14:27:48;5.03;;;4.53;;
19038;SDS011;9652;49.014;12.052;2022-12-07T14:30:23;5.00;;;4.47;;
19038;SDS011;9652;49.014;12.052;2022-12-07T14:32:53;5.40;;;4.57;;
19038;SDS011;9652;49.014;12.052;2022-12-07T14:35:25;4.83;;;4.43;;
19038;SDS011;9652;49.014;12.052;2022-12-07T14:37:53;5.63;;;4.70;;
19038;SDS011;9652;49.014;12.052;2022-12-07T14:40:22;5.27;;;4.77;;
19038;SDS011;9652;49.014;12.052;2022-12-07T14:42:53;6.40;;;4.23;;
19038;SDS011;9652;49.014;12.052;2022-12-07T14:45:26;6.37;;;5.03;;
19038;SDS011;9652;49.014;12.052;2022-12-07T14:47:53;6.97;;;4.77;;
19038;SDS011;9652;49.014;12.052;2022-12-07T14:50:21;5.97;;;4.77;;
19038;SDS011;9652;49.014;12.052;2022-12-07T14:52:49;7.67;;;5.37;;
19038;SDS011;9652;49.014;12.052;2022-12-07T14:55:24;5.70;;;4.57;;
19038;SDS011;9652;49.014;12.052;2022-12-07T14:57:54;6.13;;;5.33;;
19038;SDS011;9652;49.014;12.052;2022-12-07T15:00:22;6.83;;;4.70;;
19038;SDS011;9652;49.014;12.052;2022-12-07T15:02:51;6.00;;;5.23;;
19038;SDS011;9652;49.014;12.052;2022-12-07T15:05:20;5.60;;;4.63;;
19038;SDS011;9652;49.014;12.052;2022-12-07T15:07:48;8.30;;;5.30;;
19038;SDS011;9652;49.014;12.052;2022-12-07T15:10:17;4.97;;;4.47;;
19038;SDS011;9652;49.014;12.052;2022-12-07T15:12:48;5.07;;;4.57;;
19038;SDS011;9652;49.014;12.052;2022-12-07T15:15:16;5.70;;;4.70;;
19038;SDS011;9652;49.014;12.052;2022-12-07T15:17:43;5.03;;;4.37;;
19038;SDS011;9652;49.014;12.052;2022-12-07T15:20:11;4.97;;;4.20;;
19038;SDS011;9652;49.014;12.052;2022-12-07T15:22:42;5.93;;;5.33;;
19038;SDS011;9652;49.014;12.052;2022-12-07T15:25:09;5.77;;;4.97;;
19038;SDS011;9652;49.014;12.052;2022-12-07T15:27:39;5.53;;;4.93;;
19038;SDS011;9652;49.014;12.052;2022-12-07T15:30:08;4.80;;;4.30;;
19038;SDS011;9652;49.014;12.052;2022-12-07T15:32:36;6.80;;;4.70;;
19038;SDS011;9652;49.014;12.052;2022-12-07T15:35:03;8.27;;;5.10;;
19038;SDS011;9652;49.014;12.052;2022-12-07T15:37:31;5.37;;;4.87;;
19038;SDS011;9652;49.014;12.052;2022-12-07T15:39:58;5.20;;;4.70;;
19038;SDS011;9652;49.014;12.052;2022-12-07T15:42:26;6.20;;;5.00;;
19038;SDS011;9652;49.014;12.052;2022-12-07T15:44:53;8.17;;;4.93;;
19038;SDS011;9652;49.014;12.052;2022-12-07T15:47:30;5.47;;;4.80;;
19038;SDS011;9652;49.014;12.052;2022-12-07T15:49:58;5.17;;;4.67;;
19038;SDS011;9652;49.014;12.052;2022-12-07T15:52:25;5.27;;;4.77;;
19038;SDS011;9652;49.014;12.052;2022-12-07T15:54:53;5.47;;;4.97;;